Time;durP1;ratioP1;P1;durP2;ratioP2;P2;SDS_P1;SDS_P2;PMS_P1;PMS_P2;Temp;Humidity;BMP_temperature;BMP_pressure;BME280_temperature;BME280_humidity;BME280_pressure;Samples;Min_cycle;Max_cycle;Signal;HPM_P1;HPM_P2
2022/07/11 00:00:08;;;;;;;5.75;2.35;;;;;;;;;;5071241;28;20028;-61
2022/07/11 00:02:34;;;;;;;6.57;2.38;;;;;;;;;;5074403;28;20516;-61
2022/07/11 00:05:02;;;;;;;7.75;2.78;;;;;;;;;;5074360;28;20112;-61
2022/07/11 00:07:28;;;;;;;9.23;2.78;;;;;;;;;;5074484;28;20055;-61
2022/07/11 00:09:54;;;;;;;9.13;2.33;;;;;;;;;;5074325;28;20082;-61
2022/07/11 00:12:21;;;;;;;9.23;2.88;;;;;;;;;;5074288;28;20037;-61
2022/07/11 00:14:48;;;;;;;8.10;2.72;;;;;;;;;;5074068;28;20463;-61
2022/07/11 00:17:14;;;;;;;7.15;2.90;;;;;;;;;;5073537;28;20382;-61
2022/07/11 00:19:40;;;;;;;7.28;2.25;;;;;;;;;;5073719;28;20036;-61
2022/07/11 00:22:06;;;;;;;8.73;2.15;;;;;;;;;;5074100;28;20024;-60
2022/07/11 00:24:33;;;;;;;7.07;2.78;;;;;;;;;;5074008;28;20028;-60
2022/07/11 00:26:59;;;;;;;4.10;2.45;;;;;;;;;;5073989;28;20469;-60
2022/07/11 00:29:26;;;;;;;5.03;2.30;;;;;;;;;;5073757;28;20051;-60
2022/07/11 00:31:52;;;;;;;5.80;2.45;;;;;;;;;;5072846;28;20412;-60
2022/07/11 00:34:18;;;;;;;9.23;2.35;;;;;;;;;;5073554;28;20033;-60
2022/07/11 00:36:45;;;;;;;10.00;2.63;;;;;;;;;;5073589;28;20039;-60
2022/07/11 00:39:11;;;;;;;7.22;2.35;;;;;;;;;;5073937;28;20024;-60
2022/07/11 00:41:37;;;;;;;6.43;2.78;;;;;;;;;;5073713;28;20567;-61
2022/07/11 00:44:03;;;;;;;5.53;2.47;;;;;;;;;;5074096;28;20024;-60
2022/07/11 00:46:30;;;;;;;4.65;2.72;;;;;;;;;;5073656;28;20025;-60
2022/07/11 00:48:57;;;;;;;8.25;2.80;;;;;;;;;;5057272;28;20033;-60
2022/07/11 00:51:23;;;;;;;6.55;2.70;;;;;;;;;;5073597;28;20047;-60
2022/07/11 00:53:51;;;;;;;9.90;3.13;;;;;;;;;;5073479;28;20482;-60
2022/07/11 00:56:18;;;;;;;7.03;3.15;;;;;;;;;;5073859;28;20032;-61
2022/07/11 00:58:44;;;;;;;8.18;2.63;;;;;;;;;;5072918;28;20024;-60
2022/07/11 01:01:10;;;;;;;6.00;2.30;;;;;;;;;;5073573;28;20497;-60
2022/07/11 01:03:39;;;;;;;8.40;2.58;;;;;;;;;;5073180;28;20020;-60
2022/07/11 01:06:06;;;;;;;4.82;2.22;;;;;;;;;;5073574;28;20112;-60
2022/07/11 01:08:35;;;;;;;5.47;2.17;;;;;;;;;;5073381;28;20075;-60
2022/07/11 01:11:04;;;;;;;6.47;2.42;;;;;;;;;;5064264;28;20107;-61
2022/07/11 01:13:31;;;;;;;5.53;2.33;;;;;;;;;;5072314;28;20081;-60
2022/07/11 01:16:09;;;;;;;6.30;2.78;;;;;;;;;;5073309;28;20061;-60
2022/07/11 01:18:35;;;;;;;3.47;2.10;;;;;;;;;;5073184;28;20021;-60
2022/07/11 01:21:02;;;;;;;4.60;2.28;;;;;;;;;;5056871;28;20079;-61
2022/07/11 01:23:28;;;;;;;5.50;2.10;;;;;;;;;;5073249;28;20504;-60
2022/07/11 01:25:55;;;;;;;6.40;2.70;;;;;;;;;;5072989;28;20032;-61
2022/07/11 01:28:21;;;;;;;3.85;2.00;;;;;;;;;;5072902;28;20182;-60
2022/07/11 01:30:47;;;;;;;7.22;2.63;;;;;;;;;;5072488;28;20516;-60
2022/07/11 01:33:13;;;;;;;4.10;2.22;;;;;;;;;;5072707;28;20123;-61
2022/07/11 01:35:39;;;;;;;4.88;2.15;;;;;;;;;;5072853;28;20147;-60
2022/07/11 01:38:05;;;;;;;8.88;2.38;;;;;;;;;;5072852;28;20487;-60
2022/07/11 01:40:31;;;;;;;5.35;2.33;;;;;;;;;;5072915;28;20013;-61
2022/07/11 01:42:58;;;;;;;3.80;2.08;;;;;;;;;;5072434;28;20039;-61
2022/07/11 01:45:24;;;;;;;6.82;2.50;;;;;;;;;;5071420;28;20397;-61
2022/07/11 01:47:50;;;;;;;5.38;2.00;;;;;;;;;;5072640;28;20401;-61
2022/07/11 01:50:16;;;;;;;4.68;2.42;;;;;;;;;;5072665;28;20059;-60
2022/07/11 01:52:42;;;;;;;7.00;2.30;;;;;;;;;;5072051;28;20059;-61
2022/07/11 01:55:11;;;;;;;3.95;2.15;;;;;;;;;;5072530;28;20788;-60
2022/07/11 01:57:37;;;;;;;3.63;1.63;;;;;;;;;;5072415;28;20032;-60
2022/07/11 02:00:04;;;;;;;3.60;2.20;;;;;;;;;;5072307;28;20425;-61
2022/07/11 02:02:30;;;;;;;5.35;2.00;;;;;;;;;;5072230;28;20047;-60
2022/07/11 02:04:57;;;;;;;3.25;2.13;;;;;;;;;;5071850;28;20093;-61
2022/07/11 02:10:08;;;;;;;7.57;2.30;;;;;;;;;;5072019;28;20036;-61
2022/07/11 02:12:34;;;;;;;3.25;2.30;;;;;;;;;;5071277;28;20020;-61
2022/07/11 02:15:00;;;;;;;8.18;2.38;;;;;;;;;;5071467;28;20033;-61
2022/07/11 02:17:26;;;;;;;9.65;2.50;;;;;;;;;;5071200;28;20475;-60
2022/07/11 02:19:53;;;;;;;3.45;2.33;;;;;;;;;;5071843;28;20104;-60
2022/07/11 02:22:19;;;;;;;8.00;2.22;;;;;;;;;;5072271;28;20024;-61
2022/07/11 02:24:45;;;;;;;9.15;2.38;;;;;;;;;;5071779;28;20028;-60
2022/07/11 02:27:11;;;;;;;3.55;2.15;;;;;;;;;;5070279;28;20044;-60
2022/07/11 02:29:38;;;;;;;2.85;1.88;;;;;;;;;;5058952;28;20036;-60
2022/07/11 02:32:04;;;;;;;4.65;2.38;;;;;;;;;;5071914;28;20501;-60
2022/07/11 02:34:30;;;;;;;4.85;2.25;;;;;;;;;;5072091;28;20029;-60
2022/07/11 02:36:56;;;;;;;4.43;2.25;;;;;;;;;;5071206;28;20533;-60
2022/07/11 02:39:22;;;;;;;4.80;2.33;;;;;;;;;;5072076;28;20029;-60
2022/07/11 02:41:48;;;;;;;4.97;2.10;;;;;;;;;;5071811;28;20020;-60
2022/07/11 02:44:14;;;;;;;3.97;2.33;;;;;;;;;;5071202;28;20050;-60
2022/07/11 02:46:40;;;;;;;6.30;2.72;;;;;;;;;;5071820;28;20062;-60
2022/07/11 02:49:07;;;;;;;6.72;2.25;;;;;;;;;;5071429;28;20040;-60
2022/07/11 02:51:33;;;;;;;5.28;2.50;;;;;;;;;;5072002;28;20028;-60
2022/07/11 02:53:59;;;;;;;3.97;2.15;;;;;;;;;;5070248;28;20501;-60
2022/07/11 02:56:25;;;;;;;7.88;2.25;;;;;;;;;;5071594;28;20107;-60
2022/07/11 02:58:51;;;;;;;9.60;2.50;;;;;;;;;;5071205;28;20021;-60
2022/07/11 03:01:19;;;;;;;3.45;2.50;;;;;;;;;;5071805;28;20386;-60
2022/07/11 03:03:45;;;;;;;7.18;2.50;;;;;;;;;;5071592;28;20139;-60
2022/07/11 03:06:11;;;;;;;4.13;2.13;;;;;;;;;;5071427;28;20028;-60
2022/07/11 03:08:39;;;;;;;3.15;2.20;;;;;;;;;;5070580;28;20107;-60
2022/07/11 03:11:05;;;;;;;5.60;2.60;;;;;;;;;;5071341;28;20037;-60
2022/07/11 03:13:32;;;;;;;5.40;2.50;;;;;;;;;;5071266;28;20036;-60
2022/07/11 03:15:58;;;;;;;5.13;2.40;;;;;;;;;;5071139;28;20024;-60
2022/07/11 03:18:24;;;;;;;6.68;2.40;;;;;;;;;;5071586;28;20031;-60
2022/07/11 03:20:50;;;;;;;4.35;2.40;;;;;;;;;;5071613;28;20123;-60
2022/07/11 03:23:16;;;;;;;3.90;2.40;;;;;;;;;;5071120;28;20534;-60
2022/07/11 03:25:42;;;;;;;5.38;2.40;;;;;;;;;;5071523;28;20028;-61
2022/07/11 03:28:08;;;;;;;3.08;2.22;;;;;;;;;;5070742;28;20047;-60
2022/07/11 03:30:34;;;;;;;4.10;2.60;;;;;;;;;;5071568;28;20127;-60
2022/07/11 03:33:01;;;;;;;6.20;2.80;;;;;;;;;;5070943;28;20107;-61
2022/07/11 03:35:42;;;;;;;7.60;2.38;;;;;;;;;;5071895;28;20032;-60
2022/07/11 03:38:12;;;;;;;4.43;2.13;;;;;;;;;;5073611;28;20033;-61
2022/07/11 03:40:39;;;;;;;7.57;2.50;;;;;;;;;;5075413;28;20054;-60
2022/07/11 03:43:05;;;;;;;5.32;2.35;;;;;;;;;;5074413;28;20028;-61
2022/07/11 03:45:31;;;;;;;7.82;2.10;;;;;;;;;;5075079;28;20035;-60
2022/07/11 03:47:57;;;;;;;5.63;2.08;;;;;;;;;;5075060;28;20025;-61
2022/07/11 03:50:24;;;;;;;5.78;2.10;;;;;;;;;;5074818;28;20028;-60
2022/07/11 03:52:50;;;;;;;4.15;2.10;;;;;;;;;;5074927;28;20024;-61
2022/07/11 03:55:16;;;;;;;7.03;2.90;;;;;;;;;;5074019;28;20036;-60
2022/07/11 03:57:42;;;;;;;7.47;2.47;;;;;;;;;;5074520;28;20090;-60
2022/07/11 04:00:09;;;;;;;4.90;2.60;;;;;;;;;;5073137;28;20456;-61
2022/07/11 04:02:36;;;;;;;6.75;2.58;;;;;;;;;;5067567;28;20016;-60
2022/07/11 04:05:02;;;;;;;5.63;2.45;;;;;;;;;;5071909;28;20120;-61
2022/07/11 04:07:28;;;;;;;6.15;2.55;;;;;;;;;;5074458;28;20505;-60
2022/07/11 04:09:55;;;;;;;3.95;2.40;;;;;;;;;;5067617;28;20041;-60
2022/07/11 04:12:21;;;;;;;11.15;2.72;;;;;;;;;;5073113;28;20024;-61
2022/07/11 04:14:47;;;;;;;5.25;2.50;;;;;;;;;;5074700;28;20033;-61
2022/07/11 04:17:13;;;;;;;7.47;2.40;;;;;;;;;;5059120;28;20025;-60
2022/07/11 04:19:40;;;;;;;5.57;3.38;;;;;;;;;;5074523;28;20508;-60
2022/07/11 04:22:06;;;;;;;8.50;3.05;;;;;;;;;;5069792;28;20016;-60
2022/07/11 04:24:32;;;;;;;6.30;2.58;;;;;;;;;;5073949;28;20479;-60
2022/07/11 04:26:59;;;;;;;4.32;2.40;;;;;;;;;;5073998;28;20021;-61
2022/07/11 04:29:25;;;;;;;8.55;2.50;;;;;;;;;;5071617;28;20028;-60
2022/07/11 04:31:51;;;;;;;4.53;2.20;;;;;;;;;;5073939;28;20390;-61
2022/07/11 04:34:18;;;;;;;6.75;3.13;;;;;;;;;;5070929;28;20055;-60
2022/07/11 04:36:44;;;;;;;8.15;2.60;;;;;;;;;;5074241;28;20028;-60
2022/07/11 04:39:10;;;;;;;7.25;2.45;;;;;;;;;;5069253;28;20032;-60
2022/07/11 04:41:37;;;;;;;7.13;2.88;;;;;;;;;;5074082;28;20021;-60
2022/07/11 04:44:03;;;;;;;7.68;2.47;;;;;;;;;;5074068;28;20547;-61
2022/07/11 04:46:31;;;;;;;3.95;2.42;;;;;;;;;;5070891;28;20021;-60
2022/07/11 04:48:57;;;;;;;6.05;3.00;;;;;;;;;;5067097;28;20043;-60
2022/07/11 04:51:24;;;;;;;5.95;1.92;;;;;;;;;;5071177;28;20040;-60
2022/07/11 04:53:51;;;;;;;5.57;2.15;;;;;;;;;;5073520;28;20036;-60
2022/07/11 04:56:17;;;;;;;4.75;2.17;;;;;;;;;;5073731;28;20044;-60
2022/07/11 04:58:43;;;;;;;4.72;2.67;;;;;;;;;;5073711;28;20051;-60
2022/07/11 05:01:09;;;;;;;5.68;1.98;;;;;;;;;;5070426;28;20029;-60
2022/07/11 05:03:36;;;;;;;4.03;2.97;;;;;;;;;;5073385;28;20032;-60
2022/07/11 05:06:02;;;;;;;6.43;2.53;;;;;;;;;;5071556;28;20021;-60
2022/07/11 05:08:32;;;;;;;6.60;2.40;;;;;;;;;;5071020;28;20036;-60
2022/07/11 05:10:59;;;;;;;5.85;2.90;;;;;;;;;;5071156;28;20032;-60
2022/07/11 05:13:25;;;;;;;7.78;2.72;;;;;;;;;;5070110;28;20032;-60
2022/07/11 05:15:51;;;;;;;10.02;2.65;;;;;;;;;;5070312;28;20028;-60
2022/07/11 05:18:17;;;;;;;7.50;2.65;;;;;;;;;;5071766;28;20024;-60
2022/07/11 05:20:43;;;;;;;7.30;2.67;;;;;;;;;;5084114;28;20025;-60
2022/07/11 05:23:09;;;;;;;4.15;3.25;;;;;;;;;;5070411;28;20039;-61
2022/07/11 05:25:35;;;;;;;8.00;3.38;;;;;;;;;;5071380;28;20409;-60
2022/07/11 05:28:01;;;;;;;5.55;2.75;;;;;;;;;;5072587;28;20048;-60
2022/07/11 05:30:28;;;;;;;7.05;3.13;;;;;;;;;;5072562;28;20036;-60
2022/07/11 05:32:54;;;;;;;6.18;3.10;;;;;;;;;;5066891;28;20109;-61
2022/07/11 05:35:20;;;;;;;7.43;3.17;;;;;;;;;;5070561;28;20025;-60
2022/07/11 05:37:46;;;;;;;10.75;3.35;;;;;;;;;;5071797;28;20548;-61
2022/07/11 05:40:12;;;;;;;7.10;3.55;;;;;;;;;;5071170;28;20024;-61
2022/07/11 05:42:38;;;;;;;8.40;3.53;;;;;;;;;;5067230;28;20029;-60
2022/07/11 05:45:05;;;;;;;8.02;3.13;;;;;;;;;;5071191;28;20032;-60
2022/07/11 05:47:31;;;;;;;4.78;3.28;;;;;;;;;;5070396;28;20029;-61
2022/07/11 05:49:57;;;;;;;5.13;3.03;;;;;;;;;;5070970;28;20036;-60
2022/07/11 05:52:23;;;;;;;7.38;3.25;;;;;;;;;;5070422;28;20025;-60
2022/07/11 05:54:49;;;;;;;9.68;2.95;;;;;;;;;;5069228;28;20444;-60
2022/07/11 05:57:15;;;;;;;10.82;3.22;;;;;;;;;;5068771;28;20016;-60
2022/07/11 05:59:41;;;;;;;12.57;3.90;;;;;;;;;;5067760;28;20028;-61
2022/07/11 06:02:08;;;;;;;15.70;3.72;;;;;;;;;;5067222;28;20024;-61
2022/07/11 06:04:34;;;;;;;9.02;3.83;;;;;;;;;;5070668;28;20024;-61
2022/07/11 06:07:01;;;;;;;8.82;3.95;;;;;;;;;;5071865;28;20082;-61
2022/07/11 06:09:27;;;;;;;12.45;3.78;;;;;;;;;;5066931;28;20450;-61
2022/07/11 06:11:53;;;;;;;6.22;3.00;;;;;;;;;;5071831;28;20482;-61
2022/07/11 06:14:19;;;;;;;9.32;3.70;;;;;;;;;;5068825;28;20036;-61
2022/07/11 06:16:45;;;;;;;11.48;4.03;;;;;;;;;;5070312;28;20035;-61
2022/07/11 06:19:11;;;;;;;11.80;3.97;;;;;;;;;;5071361;28;20031;-61
2022/07/11 06:21:37;;;;;;;9.75;3.58;;;;;;;;;;5070502;28;20043;-61
2022/07/11 06:24:04;;;;;;;10.18;3.67;;;;;;;;;;5066974;28;20063;-61
2022/07/11 06:26:30;;;;;;;13.90;4.10;;;;;;;;;;5069936;28;20106;-61
2022/07/11 06:28:57;;;;;;;7.20;3.55;;;;;;;;;;5076568;28;20131;-61
2022/07/11 06:31:23;;;;;;;8.60;3.80;;;;;;;;;;5070434;28;20032;-61
2022/07/11 06:33:54;;;;;;;11.90;4.70;;;;;;;;;;5070062;28;20040;-61
2022/07/11 06:36:24;;;;;;;9.77;3.60;;;;;;;;;;5063428;28;20079;-61
2022/07/11 06:38:50;;;;;;;12.18;3.92;;;;;;;;;;5069768;28;20060;-61
2022/07/11 06:41:17;;;;;;;14.77;3.85;;;;;;;;;;5068440;28;20025;-61
2022/07/11 06:43:43;;;;;;;9.68;3.47;;;;;;;;;;5067116;28;20062;-61
2022/07/11 06:46:09;;;;;;;10.43;5.03;;;;;;;;;;5066067;28;20107;-61
2022/07/11 06:48:35;;;;;;;6.70;3.15;;;;;;;;;;5068181;28;20040;-61
2022/07/11 06:51:01;;;;;;;10.95;3.70;;;;;;;;;;5068289;28;20544;-61
2022/07/11 06:53:28;;;;;;;17.23;3.80;;;;;;;;;;5070097;28;20033;-61
2022/07/11 06:55:54;;;;;;;14.70;4.38;;;;;;;;;;5064975;28;20462;-61
2022/07/11 06:58:32;;;;;;;6.70;3.30;;;;;;;;;;5060620;28;20447;-61
2022/07/11 07:01:01;;;;;;;8.23;3.75;;;;;;;;;;5068546;28;20056;-60
2022/07/11 07:03:28;;;;;;;12.10;3.50;;;;;;;;;;5061981;28;20032;-60
2022/07/11 07:05:55;;;;;;;14.10;4.18;;;;;;;;;;5066452;28;20421;-61
2022/07/11 07:08:23;;;;;;;13.60;3.38;;;;;;;;;;5063232;28;20037;-60
2022/07/11 07:10:49;;;;;;;10.02;3.75;;;;;;;;;;5070707;28;20025;-60
2022/07/11 07:13:16;;;;;;;9.45;3.53;;;;;;;;;;5072546;28;20024;-60
2022/07/11 07:15:42;;;;;;;12.05;2.92;;;;;;;;;;5071128;28;20063;-60
2022/07/11 07:18:08;;;;;;;8.07;3.10;;;;;;;;;;5067042;28;20028;-60
2022/07/11 07:20:34;;;;;;;10.38;3.65;;;;;;;;;;5073209;28;20028;-60
2022/07/11 07:23:00;;;;;;;6.05;3.15;;;;;;;;;;5070980;28;20033;-60
2022/07/11 07:25:26;;;;;;;7.45;2.90;;;;;;;;;;5072771;28;20025;-60
2022/07/11 07:27:52;;;;;;;6.32;2.90;;;;;;;;;;5075852;28;20036;-60
2022/07/11 07:30:19;;;;;;;12.38;2.90;;;;;;;;;;5068739;28;20031;-60
2022/07/11 07:32:45;;;;;;;5.47;2.15;;;;;;;;;;5073689;28;20350;-60
2022/07/11 07:35:11;;;;;;;5.75;2.35;;;;;;;;;;5078046;28;20112;-60
2022/07/11 07:37:37;;;;;;;6.93;2.08;;;;;;;;;;5071857;28;20056;-60
2022/07/11 07:40:03;;;;;;;5.28;1.95;;;;;;;;;;5072537;28;20055;-60
2022/07/11 07:42:29;;;;;;;7.50;2.20;;;;;;;;;;5073246;28;20034;-60
2022/07/11 07:44:55;;;;;;;5.97;2.05;;;;;;;;;;5074334;28;20024;-60
2022/07/11 07:47:21;;;;;;;7.35;2.13;;;;;;;;;;5072304;28;20124;-60
2022/07/11 07:49:48;;;;;;;9.30;2.20;;;;;;;;;;5072643;28;20070;-60
2022/07/11 07:52:14;;;;;;;6.72;2.17;;;;;;;;;;5072334;28;20024;-60
2022/07/11 07:54:41;;;;;;;7.47;1.88;;;;;;;;;;5071491;28;20031;-60
2022/07/11 07:57:07;;;;;;;3.92;1.95;;;;;;;;;;5073113;28;20119;-60
2022/07/11 07:59:33;;;;;;;4.78;2.30;;;;;;;;;;5072254;28;20025;-65
2022/07/11 08:01:59;;;;;;;4.35;2.00;;;;;;;;;;5071055;28;20439;-60
2022/07/11 08:04:25;;;;;;;9.05;2.13;;;;;;;;;;5069481;28;20029;-60
2022/07/11 08:06:52;;;;;;;5.00;1.70;;;;;;;;;;5070581;28;20048;-60
2022/07/11 08:12:03;;;;;;;4.50;2.42;;;;;;;;;;5068787;28;20383;-60
2022/07/11 08:14:31;;;;;;;6.20;1.88;;;;;;;;;;5068021;28;20498;-60
2022/07/11 08:16:57;;;;;;;9.88;1.88;;;;;;;;;;5069035;28;20025;-60
2022/07/11 08:19:23;;;;;;;6.45;1.60;;;;;;;;;;5072421;28;20486;-60
2022/07/11 08:21:49;;;;;;;6.72;2.13;;;;;;;;;;5067475;28;20043;-60
2022/07/11 08:24:16;;;;;;;8.60;2.08;;;;;;;;;;5069842;28;20028;-60
2022/07/11 08:26:42;;;;;;;3.97;1.60;;;;;;;;;;5067821;28;20033;-60
2022/07/11 08:29:08;;;;;;;2.50;1.35;;;;;;;;;;5067693;28;20040;-60
2022/07/11 08:31:53;;;;;;;7.05;1.83;;;;;;;;;;5068328;28;20047;-60
2022/07/11 08:34:19;;;;;;;3.20;1.77;;;;;;;;;;5070819;28;20033;-60
2022/07/11 08:36:45;;;;;;;4.15;1.60;;;;;;;;;;5073220;28;20558;-60
2022/07/11 08:39:30;;;;;;;7.50;1.58;;;;;;;;;;5070103;28;20548;-60
2022/07/11 08:41:57;;;;;;;6.22;2.03;;;;;;;;;;5067338;28;20036;-60
2022/07/11 08:44:42;;;;;;;4.45;1.33;;;;;;;;;;5069513;28;20505;-63
2022/07/11 08:47:09;;;;;;;5.68;1.67;;;;;;;;;;5071046;28;20397;-60
2022/07/11 08:49:35;;;;;;;5.75;1.60;;;;;;;;;;5067602;28;20028;-60
2022/07/11 08:52:03;;;;;;;5.50;1.65;;;;;;;;;;5069590;28;20029;-60
2022/07/11 08:54:29;;;;;;;4.70;1.67;;;;;;;;;;5066935;28;20032;-60
2022/07/11 08:56:56;;;;;;;4.45;1.60;;;;;;;;;;5067598;28;20028;-60
2022/07/11 08:59:23;;;;;;;4.93;1.70;;;;;;;;;;5067604;28;20025;-60
2022/07/11 09:02:09;;;;;;;5.90;1.25;;;;;;;;;;5065704;28;20055;-60
2022/07/11 09:04:36;;;;;;;4.28;1.40;;;;;;;;;;5069313;28;20498;-60
2022/07/11 09:07:02;;;;;;;6.88;1.70;;;;;;;;;;5070218;28;20028;-60
2022/07/11 09:12:17;;;;;;;6.25;1.67;;;;;;;;;;5070013;28;20064;-60
2022/07/11 09:14:47;;;;;;;3.15;1.52;;;;;;;;;;5068856;28;20035;-60
2022/07/11 09:17:14;;;;;;;4.03;1.52;;;;;;;;;;5069634;28;20035;-60
2022/07/11 09:19:40;;;;;;;5.22;2.05;;;;;;;;;;5068841;28;20058;-60
2022/07/11 09:28:05;;;;;;;2.92;1.30;;;;;;;;;;5027412;28;1160585;-60
2022/07/11 09:30:50;;;;;;;5.75;1.58;;;;;;;;;;5069604;28;20020;-60
2022/07/11 09:33:17;;;;;;;3.20;1.20;;;;;;;;;;5069106;28;20434;-60
2022/07/11 09:35:46;;;;;;;5.07;1.48;;;;;;;;;;5081406;28;20536;-60
2022/07/11 09:38:13;;;;;;;3.50;1.40;;;;;;;;;;5070117;28;20029;-60
2022/07/11 09:43:27;;;;;;;5.68;1.70;;;;;;;;;;5070479;28;20107;-60
2022/07/11 09:46:05;;;;;;;5.35;1.58;;;;;;;;;;5070591;28;20028;-60
2022/07/11 09:48:31;;;;;;;7.40;1.50;;;;;;;;;;5071064;28;20031;-60
2022/07/11 09:51:04;;;;;;;5.20;1.25;;;;;;;;;;5066730;28;20056;-60
2022/07/11 09:53:31;;;;;;;4.47;1.70;;;;;;;;;;5069430;28;20036;-60
2022/07/11 09:55:57;;;;;;;3.20;1.70;;;;;;;;;;5071021;28;20505;-60
2022/07/11 10:01:14;;;;;;;4.18;1.52;;;;;;;;;;5067119;28;20029;-60
2022/07/11 10:06:44;;;;;;;2.58;1.20;;;;;;;;;;5071195;28;20032;-60
2022/07/11 10:09:10;;;;;;;6.10;1.50;;;;;;;;;;5067741;28;20044;-60
2022/07/11 10:11:36;;;;;;;2.30;1.25;;;;;;;;;;5067882;28;20016;-60
2022/07/11 10:16:52;;;;;;;3.15;1.20;;;;;;;;;;5069365;28;20022;-60
2022/07/11 10:19:18;;;;;;;6.13;1.50;;;;;;;;;;5070098;28;21082;-60
2022/07/11 10:21:59;;;;;;;3.42;1.33;;;;;;;;;;5069312;28;20067;-60
2022/07/11 10:24:44;;;;;;;4.67;1.40;;;;;;;;;;5068568;28;20031;-60
2022/07/11 10:27:33;;;;;;;4.70;1.35;;;;;;;;;;5068287;28;20072;-60
2022/07/11 10:30:01;;;;;;;3.83;1.52;;;;;;;;;;5070380;28;20024;-60
2022/07/11 10:32:27;;;;;;;4.57;1.58;;;;;;;;;;5067416;28;20081;-60
2022/07/11 10:35:06;;;;;;;7.07;1.67;;;;;;;;;;5068053;28;20051;-60
2022/07/11 10:37:49;;;;;;;3.83;1.33;;;;;;;;;;5066185;28;20031;-60
2022/07/11 10:40:15;;;;;;;3.55;1.52;;;;;;;;;;5066913;28;20032;-60
2022/07/11 10:42:42;;;;;;;2.53;1.25;;;;;;;;;;5064755;28;20448;-60
2022/07/11 10:45:10;;;;;;;3.95;1.58;;;;;;;;;;5069254;28;20025;-60
2022/07/11 10:47:42;;;;;;;1.60;1.17;;;;;;;;;;5066896;28;20029;-60
2022/07/11 10:50:09;;;;;;;4.47;1.70;;;;;;;;;;5070772;28;20031;-60
2022/07/11 10:52:37;;;;;;;8.63;1.40;;;;;;;;;;5069494;28;20029;-60
2022/07/11 10:55:21;;;;;;;7.15;1.83;;;;;;;;;;5069769;28;20545;-60
2022/07/11 10:58:09;;;;;;;6.15;1.42;;;;;;;;;;5065370;28;20049;-60
2022/07/11 11:00:35;;;;;;;3.05;1.35;;;;;;;;;;5070583;28;20457;-60
2022/07/11 11:03:01;;;;;;;4.15;1.10;;;;;;;;;;5070770;28;20032;-60
2022/07/11 11:05:49;;;;;;;2.65;1.50;;;;;;;;;;5070353;28;20042;-60
2022/07/11 11:08:34;;;;;;;4.50;1.35;;;;;;;;;;5064564;28;20115;-60
2022/07/11 11:11:02;;;;;;;2.50;1.10;;;;;;;;;;5069103;28;20056;-60
2022/07/11 11:13:28;;;;;;;4.20;1.55;;;;;;;;;;5069640;28;20024;-60
2022/07/11 11:15:56;;;;;;;2.45;1.08;;;;;;;;;;5071093;28;20020;-60
2022/07/11 11:18:24;;;;;;;3.92;1.33;;;;;;;;;;5068946;28;20036;-60
2022/07/11 11:21:02;;;;;;;2.50;1.23;;;;;;;;;;5069784;28;20048;-60
2022/07/11 11:23:33;;;;;;;5.15;1.58;;;;;;;;;;5069923;28;20119;-60
2022/07/11 11:26:05;;;;;;;2.95;0.93;;;;;;;;;;5066867;28;20178;-60
2022/07/11 11:28:31;;;;;;;2.95;1.20;;;;;;;;;;5067513;28;20861;-60
2022/07/11 11:30:58;;;;;;;8.07;1.20;;;;;;;;;;5070717;28;20107;-60
2022/07/11 11:33:29;;;;;;;4.30;1.30;;;;;;;;;;5068384;28;20398;-60
2022/07/11 11:36:15;;;;;;;3.58;1.10;;;;;;;;;;5069773;28;20028;-60
2022/07/11 11:38:42;;;;;;;2.35;1.13;;;;;;;;;;5068771;28;20024;-60
2022/07/11 11:41:08;;;;;;;5.45;1.33;;;;;;;;;;5066938;28;20056;-60
2022/07/11 11:43:35;;;;;;;1.77;0.85;;;;;;;;;;5067594;28;20024;-60
2022/07/11 11:46:02;;;;;;;3.75;1.00;;;;;;;;;;5067593;28;20025;-60
2022/07/11 11:48:32;;;;;;;3.13;1.10;;;;;;;;;;5061615;28;20041;-60
2022/07/11 11:51:02;;;;;;;1.90;1.10;;;;;;;;;;5065837;28;20036;-60
2022/07/11 11:53:31;;;;;;;2.38;1.00;;;;;;;;;;5067270;28;20592;-60
2022/07/11 11:55:57;;;;;;;2.33;1.00;;;;;;;;;;5068644;28;20028;-60
2022/07/11 11:58:25;;;;;;;2.50;1.15;;;;;;;;;;5070970;28;20027;-60
2022/07/11 12:00:55;;;;;;;3.35;0.98;;;;;;;;;;5071362;28;20551;-60
2022/07/11 12:03:21;;;;;;;0.88;0.70;;;;;;;;;;5069296;28;20036;-61
2022/07/11 12:05:57;;;;;;;2.33;1.02;;;;;;;;;;5071863;28;20032;-60
2022/07/11 12:08:27;;;;;;;4.68;1.30;;;;;;;;;;5068484;28;20021;-60
2022/07/11 12:10:54;;;;;;;4.03;1.00;;;;;;;;;;5069014;28;20119;-60
2022/07/11 12:13:21;;;;;;;4.38;1.38;;;;;;;;;;5073478;28;20045;-60
2022/07/11 12:18:37;;;;;;;6.40;1.40;;;;;;;;;;5081600;28;20033;-60
2022/07/11 12:21:10;;;;;;;1.90;1.02;;;;;;;;;;5071619;28;20069;-60
2022/07/11 12:23:36;;;;;;;3.10;1.20;;;;;;;;;;5071463;28;20024;-60
2022/07/11 12:26:03;;;;;;;3.30;0.88;;;;;;;;;;5073635;28;20393;-60
2022/07/11 12:28:29;;;;;;;1.70;1.13;;;;;;;;;;5066117;28;20056;-60
2022/07/11 12:30:58;;;;;;;2.22;1.35;;;;;;;;;;5070113;28;20039;-60
2022/07/11 12:33:24;;;;;;;2.80;1.08;;;;;;;;;;5071307;28;20596;-60
2022/07/11 12:36:00;;;;;;;1.63;0.75;;;;;;;;;;5077500;28;20055;-60
2022/07/11 12:38:27;;;;;;;1.50;1.00;;;;;;;;;;5064245;28;20486;-61
2022/07/11 12:41:03;;;;;;;3.30;1.13;;;;;;;;;;5061195;28;20375;-62
2022/07/11 12:46:33;;;;;;;4.30;1.30;;;;;;;;;;5059438;28;20024;-62
2022/07/11 12:49:03;;;;;;;2.75;1.20;;;;;;;;;;5061902;28;20047;-62
2022/07/11 12:51:37;;;;;;;6.60;1.35;;;;;;;;;;5067480;28;20028;-58
2022/07/11 12:54:04;;;;;;;6.95;1.33;;;;;;;;;;5068773;28;20033;-58
2022/07/11 12:56:31;;;;;;;3.90;1.35;;;;;;;;;;5058108;28;20131;-58
2022/07/11 12:58:57;;;;;;;3.50;1.45;;;;;;;;;;5057089;28;20021;-58
2022/07/11 13:01:23;;;;;;;1.92;1.40;;;;;;;;;;5058510;28;20091;-58
2022/07/11 13:03:49;;;;;;;1.70;0.93;;;;;;;;;;5063267;28;20039;-58
2022/07/11 13:06:16;;;;;;;1.70;1.40;;;;;;;;;;5071052;28;20024;-58
2022/07/11 13:08:45;;;;;;;1.65;1.10;;;;;;;;;;5058614;28;20490;-58
2022/07/11 13:11:24;;;;;;;5.70;1.38;;;;;;;;;;5061009;28;20402;-59
2022/07/11 13:13:50;;;;;;;3.58;1.38;;;;;;;;;;5060568;28;20127;-58
2022/07/11 13:16:17;;;;;;;2.80;1.25;;;;;;;;;;5067134;28;20024;-58
2022/07/11 13:18:45;;;;;;;4.40;1.20;;;;;;;;;;5068020;28;20478;-58
2022/07/11 13:21:11;;;;;;;2.15;1.10;;;;;;;;;;5069970;28;20025;-59
2022/07/11 13:23:38;;;;;;;3.90;1.20;;;;;;;;;;5070432;28;20165;-59
2022/07/11 13:26:05;;;;;;;21.23;1.98;;;;;;;;;;5066793;28;20024;-59
2022/07/11 13:28:31;;;;;;;3.90;1.15;;;;;;;;;;5060448;28;20454;-59
2022/07/11 13:30:57;;;;;;;2.97;1.33;;;;;;;;;;5064749;28;20033;-59
2022/07/11 13:33:23;;;;;;;5.25;1.48;;;;;;;;;;5062483;28;20029;-59
2022/07/11 13:35:51;;;;;;;2.38;1.38;;;;;;;;;;5057671;28;20032;-59
2022/07/11 13:38:18;;;;;;;3.65;1.20;;;;;;;;;;5061535;28;20208;-59
2022/07/11 13:40:44;;;;;;;7.55;1.45;;;;;;;;;;5058876;28;20079;-59
2022/07/11 13:43:12;;;;;;;4.28;1.30;;;;;;;;;;5061348;28;20973;-59
2022/07/11 13:45:39;;;;;;;2.55;1.27;;;;;;;;;;5057675;28;20021;-59
2022/07/11 13:48:06;;;;;;;3.55;1.20;;;;;;;;;;5060453;28;20031;-58
2022/07/11 13:50:32;;;;;;;6.80;1.30;;;;;;;;;;5058792;28;20115;-58
2022/07/11 13:52:58;;;;;;;2.13;1.30;;;;;;;;;;5060682;28;20032;-58
2022/07/11 13:55:29;;;;;;;1.40;1.00;;;;;;;;;;5059509;28;20035;-58
2022/07/11 13:57:56;;;;;;;12.70;2.15;;;;;;;;;;5059430;28;20051;-58
2022/07/11 14:00:22;;;;;;;2.28;1.20;;;;;;;;;;5056502;28;20036;-58
2022/07/11 14:02:49;;;;;;;4.13;1.42;;;;;;;;;;5059945;28;20502;-59
2022/07/11 14:05:15;;;;;;;2.47;1.00;;;;;;;;;;5055251;28;20104;-59
2022/07/11 14:07:42;;;;;;;5.20;1.27;;;;;;;;;;5058243;28;20040;-58
2022/07/11 14:10:08;;;;;;;2.85;1.17;;;;;;;;;;5062780;28;20031;-57
2022/07/11 14:12:35;;;;;;;2.58;0.93;;;;;;;;;;5059860;28;20036;-57
2022/07/11 14:15:02;;;;;;;5.15;1.10;;;;;;;;;;5059585;28;20024;-58
2022/07/11 14:17:28;;;;;;;4.05;1.33;;;;;;;;;;5069271;28;20606;-58
2022/07/11 14:19:55;;;;;;;2.38;1.30;;;;;;;;;;5069068;28;20016;-58
2022/07/11 14:22:22;;;;;;;3.72;1.33;;;;;;;;;;5071169;28;20135;-57
2022/07/11 14:24:48;;;;;;;3.83;1.30;;;;;;;;;;5071417;28;20024;-57
2022/07/11 14:27:15;;;;;;;2.90;1.25;;;;;;;;;;5070149;28;20045;-58
2022/07/11 14:29:43;;;;;;;4.30;1.10;;;;;;;;;;5069648;28;20032;-58
2022/07/11 14:32:10;;;;;;;3.72;1.25;;;;;;;;;;5069610;28;20481;-58
2022/07/11 14:34:36;;;;;;;3.35;1.40;;;;;;;;;;5072977;28;20549;-59
2022/07/11 14:37:04;;;;;;;2.80;1.50;;;;;;;;;;5072956;28;20035;-58
2022/07/11 14:39:31;;;;;;;2.83;1.20;;;;;;;;;;5070887;28;20115;-58
2022/07/11 14:41:58;;;;;;;6.15;1.25;;;;;;;;;;5069711;28;20028;-58
2022/07/11 14:44:24;;;;;;;2.67;1.40;;;;;;;;;;5066227;28;20108;-58
2022/07/11 14:46:50;;;;;;;3.08;1.35;;;;;;;;;;5070133;28;20021;-58
2022/07/11 14:49:16;;;;;;;3.17;1.33;;;;;;;;;;5070089;28;20032;-58
2022/07/11 14:51:42;;;;;;;3.50;1.27;;;;;;;;;;5070594;28;20028;-58
2022/07/11 14:54:08;;;;;;;2.95;1.00;;;;;;;;;;5071339;28;20025;-58
2022/07/11 14:56:37;;;;;;;4.82;1.35;;;;;;;;;;5071616;28;20499;-58
2022/07/11 14:59:04;;;;;;;5.93;1.08;;;;;;;;;;5070678;28;20021;-58
2022/07/11 15:01:31;;;;;;;2.15;1.00;;;;;;;;;;5070894;28;20052;-58
2022/07/11 15:03:57;;;;;;;3.88;1.40;;;;;;;;;;5071044;28;20028;-58
2022/07/11 15:12:20;;;;;;;6.43;1.10;;;;;;;;;;5070865;28;20441;-58
2022/07/11 15:14:39;;;;;;;5.82;1.38;;;;;;;;;;5070409;28;20111;-58
2022/07/11 15:17:05;;;;;;;2.83;1.08;;;;;;;;;;5070361;28;20032;-58
2022/07/11 15:19:32;;;;;;;4.13;0.90;;;;;;;;;;5071063;28;20397;-58
2022/07/11 15:21:58;;;;;;;4.32;1.00;;;;;;;;;;5071457;28;20370;-58